Time;durP1;ratioP1;P1;durP2;ratioP2;P2;SDS_P1;SDS_P2;PMS_P1;PMS_P2;Temp;Humidity;BMP_temperature;BMP_pressure;BME280_temperature;BME280_humidity;BME280_pressure;Samples;Min_cycle;Max_cycle;Signal;HPM_P1;HPM_P2
2022/05/17 00:03:15;;;;;;;5.45;3.20;;;;;;;20.15;47.22;99808.56;7658249;32;37232;-75
2022/05/17 00:07:31;;;;;;;7.55;3.40;;;;;;;20.31;46.69;99808.78;7658117;32;40161;-75
2022/05/17 00:11:48;;;;;;;5.55;3.37;;;;;;;20.41;46.52;99786.22;7658078;32;39988;-75
2022/05/17 00:16:05;;;;;;;6.68;3.40;;;;;;;19.80;48.48;99801.28;7657913;32;38547;-75
2022/05/17 00:20:22;;;;;;;5.75;3.05;;;;;;;19.72;48.59;99795.78;7657926;32;38064;-74
2022/05/17 00:24:38;;;;;;;7.45;3.62;;;;;;;19.74;48.80;99801.78;7670331;32;39031;-75
2022/05/17 00:28:54;;;;;;;7.93;3.47;;;;;;;19.44;50.62;99798.97;7681308;32;40589;-75
2022/05/17 00:33:10;;;;;;;7.82;3.58;;;;;;;19.35;50.94;99793.50;7657680;32;37990;-75
2022/05/17 00:37:26;;;;;;;5.80;3.33;;;;;;;19.50;50.19;99787.37;7657669;32;37009;-75
2022/05/17 00:41:43;;;;;;;7.18;3.28;;;;;;;19.59;50.05;99778.25;7657523;32;40160;-75
2022/05/17 00:46:01;;;;;;;6.90;3.70;;;;;;;19.37;50.99;99782.91;7657372;32;40040;-74
2022/05/17 00:50:17;;;;;;;11.55;3.87;;;;;;;19.41;50.67;99789.38;7657734;32;36817;-75
2022/05/17 00:54:34;;;;;;;6.57;3.50;;;;;;;19.40;51.11;99775.91;7657213;32;37887;-74
2022/05/17 00:58:54;;;;;;;8.38;3.05;;;;;;;19.71;49.64;99781.09;7657582;32;39454;-75
2022/05/17 01:03:13;;;;;;;7.40;3.17;;;;;;;19.61;50.18;99770.44;7683368;32;39975;-75
2022/05/17 01:07:37;;;;;;;6.80;3.17;;;;;;;19.38;51.35;99767.94;7683161;32;37853;-74
2022/05/17 01:11:53;;;;;;;6.68;3.40;;;;;;;19.44;50.62;99758.31;7683170;32;37824;-75
2022/05/17 01:16:09;;;;;;;7.40;3.83;;;;;;;19.38;50.76;99762.41;7683057;32;39350;-74
2022/05/17 01:20:26;;;;;;;9.98;3.60;;;;;;;19.44;50.82;99766.63;7682872;32;40969;-74
2022/05/17 01:24:42;;;;;;;9.05;3.55;;;;;;;19.32;50.92;99760.97;7667652;32;38038;-75
2022/05/17 01:28:58;;;;;;;7.22;3.70;;;;;;;19.17;51.60;99756.00;7658003;32;37148;-75
2022/05/17 01:33:16;;;;;;;11.00;3.97;;;;;;;19.22;51.74;99758.56;7682774;32;39469;-75
2022/05/17 01:37:32;;;;;;;10.75;3.72;;;;;;;19.19;51.68;99764.75;7682617;32;41632;-74
2022/05/17 01:41:48;;;;;;;6.72;3.35;;;;;;;19.08;52.50;99762.34;7683418;32;38668;-75
2022/05/17 01:46:06;;;;;;;7.25;3.72;;;;;;;19.39;51.48;99755.75;7685954;32;36946;-74
2022/05/17 01:50:23;;;;;;;7.03;3.60;;;;;;;19.14;52.11;99758.28;7684060;32;39452;-74
2022/05/17 01:54:39;;;;;;;6.00;3.53;;;;;;;19.04;52.42;99755.88;7659748;32;40795;-74
2022/05/17 01:58:56;;;;;;;8.35;3.55;;;;;;;19.04;52.70;99741.22;7660486;32;37999;-74
2022/05/17 02:03:12;;;;;;;6.50;3.50;;;;;;;19.38;50.93;99729.22;7685972;32;37896;-75
2022/05/17 02:07:28;;;;;;;8.38;4.40;;;;;;;18.97;53.42;99746.44;7685907;32;40128;-74
2022/05/17 02:11:44;;;;;;;8.13;4.90;;;;;;;18.90;56.01;99746.94;7685858;32;39945;-74
2022/05/17 02:16:03;;;;;;;9.13;3.78;;;;;;;19.14;54.20;99743.63;7685751;32;38059;-74
2022/05/17 02:20:20;;;;;;;6.00;3.87;;;;;;;19.06;54.78;99750.03;7684025;32;37849;-75
2022/05/17 02:24:36;;;;;;;9.27;3.60;;;;;;;19.13;54.23;99753.09;7684120;32;39783;-74
2022/05/17 02:28:52;;;;;;;6.47;4.10;;;;;;;19.27;53.67;99780.50;7683194;32;40803;-75
2022/05/17 02:33:10;;;;;;;8.18;3.90;;;;;;;18.98;53.79;99759.94;7659165;32;37879;-75
2022/05/17 02:37:26;;;;;;;5.97;3.92;;;;;;;18.92;53.71;99769.53;7659255;32;37181;-75
2022/05/17 02:41:42;;;;;;;7.03;4.05;;;;;;;18.81;54.71;99776.53;7680864;32;40135;-75
2022/05/17 02:45:58;;;;;;;9.63;3.97;;;;;;;18.61;55.54;99784.34;7685261;32;40755;-75
2022/05/17 02:50:15;;;;;;;7.28;4.00;;;;;;;18.83;54.61;99785.31;7682407;32;38062;-75
2022/05/17 02:54:31;;;;;;;8.25;4.55;;;;;;;18.60;54.57;99793.75;7658833;32;37765;-75
2022/05/17 02:58:47;;;;;;;10.13;4.50;;;;;;;18.74;54.39;99793.59;7663927;32;39272;-74
2022/05/17 03:03:04;;;;;;;9.32;4.87;;;;;;;18.96;53.14;99781.56;7685209;32;40719;-75
2022/05/17 03:07:20;;;;;;;6.68;4.30;;;;;;;18.98;52.87;99792.28;7684999;32;37902;-75
2022/05/17 03:11:43;;;;;;;10.38;4.82;;;;;;;19.03;52.81;99795.69;7685308;32;37367;-75
2022/05/17 03:15:59;;;;;;;8.48;4.32;;;;;;;18.87;53.64;99798.16;7685265;32;39373;-75
2022/05/17 03:20:16;;;;;;;8.73;4.03;;;;;;;19.14;52.66;99796.97;7685124;32;40832;-75
2022/05/17 03:24:32;;;;;;;9.10;4.80;;;;;;;19.25;52.52;99786.34;7685034;32;37982;-75
2022/05/17 03:29:08;;;;;;;10.23;4.03;;;;;;;19.41;51.49;99788.59;7676332;32;37399;-76
2022/05/17 03:33:24;;;;;;;8.20;4.20;;;;;;;19.70;51.28;99779.50;7658620;32;40157;-75
2022/05/17 03:37:41;;;;;;;9.07;3.95;;;;;;;19.38;52.62;99795.56;7658580;32;39993;-75
2022/05/17 03:41:57;;;;;;;7.80;3.80;;;;;;;19.55;52.08;99794.69;7658445;32;38083;-76
2022/05/17 03:46:13;;;;;;;7.70;3.90;;;;;;;19.55;52.05;99788.37;7658274;32;37965;-74
2022/05/17 03:50:29;;;;;;;9.00;4.15;;;;;;;19.28;53.61;99798.69;7662937;32;39503;-74
2022/05/17 03:54:45;;;;;;;5.65;3.60;;;;;;;19.55;52.16;99794.69;7685178;32;38007;-75
2022/05/17 03:59:02;;;;;;;9.27;4.18;;;;;;;19.67;51.96;99792.03;7674946;32;38606;-75
2022/05/17 04:03:19;;;;;;;9.02;4.20;;;;;;;19.96;51.41;99786.88;7671535;32;37247;-75
2022/05/17 04:07:36;;;;;;;10.63;3.80;;;;;;;19.65;52.90;99771.41;7663270;32;40133;-75
2022/05/17 04:11:52;;;;;;;7.55;4.30;;;;;;;19.53;53.81;99783.16;7684386;32;40787;-75
2022/05/17 04:16:08;;;;;;;7.53;4.00;;;;;;;19.86;51.94;99782.53;7684353;32;38035;-75
2022/05/17 04:20:25;;;;;;;8.07;4.07;;;;;;;19.82;51.98;99793.47;7684369;32;37154;-75
2022/05/17 04:24:42;;;;;;;11.70;4.37;;;;;;;19.68;52.81;99788.13;7684299;32;39397;-74
2022/05/17 04:28:58;;;;;;;10.50;5.05;;;;;;;19.54;54.10;99795.03;7676379;32;39957;-75
2022/05/17 04:33:14;;;;;;;14.35;4.20;;;;;;;19.42;53.98;99791.03;7657617;32;37927;-74
2022/05/17 04:37:30;;;;;;;6.22;3.62;;;;;;;19.74;53.07;99794.31;7657700;32;37915;-74
2022/05/17 04:41:46;;;;;;;8.65;4.95;;;;;;;19.59;53.45;99794.84;7673800;32;39251;-75
2022/05/17 04:46:02;;;;;;;9.02;4.57;;;;;;;19.67;54.02;99791.22;7683613;32;40853;-76
2022/05/17 04:50:19;;;;;;;7.85;4.07;;;;;;;19.76;53.51;99794.78;7684097;32;37880;-76
2022/05/17 04:54:35;;;;;;;9.10;4.95;;;;;;;19.61;53.91;99801.69;7683645;32;37004;-75
2022/05/17 04:58:51;;;;;;;12.65;5.28;;;;;;;19.88;53.16;99803.16;7682132;32;40053;-75
2022/05/17 05:03:08;;;;;;;17.45;5.07;;;;;;;19.58;54.63;99804.28;7683504;32;39896;-75
2022/05/17 05:07:24;;;;;;;26.17;6.03;;;;;;;19.70;54.30;99804.41;7683137;32;38019;-75
2022/05/17 05:11:40;;;;;;;12.77;4.85;;;;;;;20.05;53.57;99798.69;7683185;32;37223;-76
2022/05/17 05:15:56;;;;;;;13.85;5.32;;;;;;;20.01;52.64;99797.75;7682147;32;39069;-75
2022/05/17 05:20:15;;;;;;;12.13;5.90;;;;;;;20.01;53.52;99795.78;7685332;32;39634;-76
2022/05/17 05:24:32;;;;;;;12.23;5.60;;;;;;;20.03;53.03;99803.75;7669811;32;38563;-74
2022/05/17 05:28:48;;;;;;;13.30;5.03;;;;;;;19.99;52.81;99794.50;7666687;32;37950;-75
2022/05/17 05:33:05;;;;;;;11.85;5.35;;;;;;;20.02;53.74;99797.44;7686344;32;39858;-75
2022/05/17 05:37:21;;;;;;;17.90;6.22;;;;;;;19.81;53.57;99788.25;7684923;32;39994;-76
2022/05/17 05:41:37;;;;;;;11.32;5.43;;;;;;;20.13;53.21;99797.00;7684891;32;37617;-74
2022/05/17 05:45:53;;;;;;;11.23;5.90;;;;;;;20.33;52.98;99784.34;7682725;32;36961;-75
2022/05/17 05:50:10;;;;;;;10.95;5.82;;;;;;;20.12;53.44;99798.97;7686026;32;39287;-75
2022/05/17 05:54:26;;;;;;;12.10;5.55;;;;;;;20.42;51.67;99791.44;7686087;32;39627;-76
2022/05/17 05:58:45;;;;;;;11.88;5.50;;;;;;;20.33;53.06;99809.25;7685930;32;37613;-75
2022/05/17 06:03:02;;;;;;;16.85;5.97;;;;;;;20.43;53.54;99808.84;7683291;32;37286;-74
2022/05/17 06:07:18;;;;;;;19.50;6.53;;;;;;;20.66;52.50;99809.34;7684414;32;39450;-73
2022/05/17 06:11:34;;;;;;;10.98;5.45;;;;;;;20.88;52.44;99808.16;7685149;32;41368;-73
2022/05/17 06:15:52;;;;;;;11.73;5.35;;;;;;;20.64;53.04;99806.09;7685748;32;37964;-73
2022/05/17 06:20:14;;;;;;;11.65;6.10;;;;;;;20.93;52.04;99816.25;7685901;32;36196;-73
2022/05/17 06:24:31;;;;;;;10.90;6.35;;;;;;;20.48;53.34;99816.94;7686265;32;40207;-74
2022/05/17 06:28:47;;;;;;;12.85;6.00;;;;;;;21.06;51.39;99821.84;7683186;32;39951;-72
2022/05/17 06:33:06;;;;;;;11.73;6.37;;;;;;;20.49;53.92;99824.13;7684779;32;38824;-77
2022/05/17 06:37:22;;;;;;;20.88;7.25;;;;;;;20.69;52.86;99830.00;7674751;32;36768;-77
2022/05/17 06:41:38;;;;;;;14.70;6.55;;;;;;;20.56;52.91;99826.34;7657652;32;38985;-78
2022/05/17 06:45:54;;;;;;;11.45;6.30;;;;;;;20.93;51.76;99819.03;7685481;32;39639;-78
2022/05/17 06:50:11;;;;;;;12.68;6.50;;;;;;;21.01;51.32;99823.69;7685191;32;37424;-78
2022/05/17 06:54:27;;;;;;;17.50;6.80;;;;;;;20.90;52.05;99827.22;7685447;32;37244;-79
2022/05/17 06:58:43;;;;;;;17.25;7.93;;;;;;;21.14;52.20;99824.53;7683138;32;39344;-79
2022/05/17 07:03:00;;;;;;;18.48;7.72;;;;;;;21.13;51.20;99834.00;7673931;32;40286;-77
2022/05/17 07:07:16;;;;;;;16.10;7.45;;;;;;;21.43;51.78;99833.03;7678192;32;37892;-76
2022/05/17 07:16:07;;;;;;;17.83;8.55;;;;;;;21.73;50.58;99839.22;7669446;32;39311;-76
2022/05/17 07:20:23;;;;;;;13.38;8.05;;;;;;;21.74;51.63;99838.88;7675725;32;40750;-76
2022/05/17 07:24:45;;;;;;;17.30;8.02;;;;;;;21.97;51.36;99840.37;7658509;32;38544;-77
2022/05/17 07:29:02;;;;;;;16.60;9.45;;;;;;;22.04;50.36;99827.56;7672585;32;37083;-71
2022/05/17 07:33:20;;;;;;;15.55;8.68;;;;;;;22.10;49.58;99831.69;7670325;32;39259;-73
2022/05/17 07:37:36;;;;;;;14.13;8.70;;;;;;;21.94;50.51;99839.94;7666539;32;39609;-73
2022/05/17 07:41:52;;;;;;;13.18;7.78;;;;;;;22.17;50.00;99838.66;7663619;32;38189;-74
2022/05/17 07:46:08;;;;;;;13.52;8.18;;;;;;;22.18;50.13;99840.25;7679694;32;37789;-75
2022/05/17 07:50:25;;;;;;;17.00;8.80;;;;;;;21.71;50.83;99838.75;7684747;32;40218;-74
2022/05/17 07:54:41;;;;;;;16.98;7.55;;;;;;;21.69;51.30;99839.09;7681237;32;39959;-74
2022/05/17 07:58:57;;;;;;;18.55;7.45;;;;;;;21.74;51.67;99840.84;7680695;32;38597;-73
2022/05/17 08:03:16;;;;;;;14.32;7.50;;;;;;;21.54;52.21;99843.38;7670738;32;37863;-73
2022/05/17 08:07:32;;;;;;;12.60;6.68;;;;;;;21.78;51.86;99850.09;7668069;32;39404;-75
2022/05/17 08:11:48;;;;;;;12.32;6.90;;;;;;;21.58;51.49;99843.50;7678861;32;39953;-76
2022/05/17 08:16:04;;;;;;;11.38;6.22;;;;;;;21.26;51.90;99848.69;7680307;32;38688;-75
2022/05/17 08:20:21;;;;;;;10.25;6.32;;;;;;;21.33;52.20;99848.13;7684422;32;37781;-75
2022/05/17 08:29:13;;;;;;;11.00;7.00;;;;;;;21.74;50.41;99849.97;7678714;32;40096;-75
2022/05/17 08:33:30;;;;;;;16.87;7.00;;;;;;;21.72;50.08;99857.84;7678355;32;38644;-74
2022/05/17 08:37:46;;;;;;;13.05;6.50;;;;;;;21.36;51.00;99861.31;7683652;32;37189;-79
2022/05/17 08:42:34;;;;;;;18.20;6.50;;;;;;;21.28;51.19;99868.56;7682194;32;40108;-80
2022/05/17 08:46:59;;;;;;;14.25;6.57;;;;;;;21.31;52.15;99862.34;7682157;32;40538;-79
2022/05/17 08:51:41;;;;;;;15.57;5.87;;;;;;;21.50;51.33;99861.84;7669857;32;38130;-74
2022/05/17 08:55:58;;;;;;;13.07;6.28;;;;;;;21.67;51.45;99857.25;7674609;32;37358;-76
2022/05/17 09:00:23;;;;;;;12.63;6.53;;;;;;;21.81;50.96;99857.72;7675753;32;39444;-76
2022/05/17 09:05:04;;;;;;;10.88;6.20;;;;;;;21.23;51.97;99866.03;7668509;32;40239;-78
2022/05/17 09:09:31;;;;;;;16.12;5.40;;;;;;;21.49;51.97;99864.94;7665890;32;38678;-79
2022/05/17 09:13:51;;;;;;;8.88;5.47;;;;;;;21.73;51.24;99856.69;7665097;32;37916;-78
2022/05/17 09:18:25;;;;;;;13.52;5.87;;;;;;;21.90;50.64;99852.88;7669238;32;39931;-79
2022/05/17 09:22:42;;;;;;;10.23;5.57;;;;;;;21.34;52.25;99856.13;7675762;32;40285;-79
2022/05/17 09:27:08;;;;;;;11.52;5.97;;;;;;;21.56;51.48;99846.59;7669119;32;37543;-79
2022/05/17 09:31:32;;;;;;;9.10;5.50;;;;;;;21.36;51.38;99853.81;7672799;32;37881;-79
2022/05/17 09:36:01;;;;;;;10.13;5.60;;;;;;;21.57;50.80;99848.22;7659474;32;40175;-79
2022/05/17 09:40:35;;;;;;;12.73;5.57;;;;;;;21.76;50.30;99847.66;7680721;32;40880;-79
2022/05/17 09:44:52;;;;;;;;;;;;;;;21.73;49.48;99842.00;7667596;32;37366;-78
2022/05/17 09:54:06;;;;;;;10.60;5.20;;;;;;;21.80;50.60;99852.50;7675420;32;39153;-78
2022/05/17 09:58:38;;;;;;;8.30;4.70;;;;;;;21.63;50.63;99846.03;7661310;32;40664;-78
2022/05/17 10:03:06;;;;;;;11.27;4.72;;;;;;;21.75;51.42;99842.47;7670706;32;37954;-79
2022/05/17 10:07:24;;;;;;;9.80;4.57;;;;;;;21.16;52.07;99854.66;7665885;32;38525;-78
2022/05/17 10:11:53;;;;;;;11.90;5.07;;;;;;;22.03;50.36;99841.78;7679970;32;38341;-77
2022/05/17 10:16:18;;;;;;;9.23;5.62;;;;;;;21.32;51.12;99846.53;7672109;32;39916;-78
2022/05/17 10:20:43;;;;;;;10.90;4.82;;;;;;;21.98;49.92;99836.47;7664009;32;38436;-77
2022/05/17 10:25:34;;;;;;;11.95;4.78;;;;;;;21.96;49.51;99830.47;7664259;32;38079;-78
2022/05/17 10:29:52;;;;;;;11.20;5.80;;;;;;;22.19;49.44;99826.03;7649183;32;39000;-78
2022/05/17 10:34:30;;;;;;;8.40;4.60;;;;;;;22.32;48.17;99832.41;7665734;32;40352;-77
2022/05/17 10:39:14;;;;;;;8.82;4.80;;;;;;;22.99;48.87;99821.66;7682896;32;37632;-76
2022/05/17 10:43:37;;;;;;;9.50;4.40;;;;;;;23.44;45.19;99816.91;7684569;32;36714;-76
2022/05/17 10:48:10;;;;;;;13.82;4.60;;;;;;;23.89;44.62;99818.44;7684097;32;39432;-76
2022/05/17 10:52:39;;;;;;;7.22;4.30;;;;;;;23.87;44.66;99812.44;7682581;32;40041;-75
2022/05/17 10:57:17;;;;;;;10.35;4.32;;;;;;;23.47;44.58;99821.72;7682363;32;37925;-76
2022/05/17 11:01:39;;;;;;;13.30;4.57;;;;;;;23.49;45.66;99811.06;7683679;32;36932;-76
2022/05/17 11:06:11;;;;;;;13.23;4.25;;;;;;;24.04;45.67;99807.62;7683363;32;39431;-76
2022/05/17 11:10:32;;;;;;;7.03;3.78;;;;;;;24.46;43.65;99807.78;7683748;32;40722;-76
2022/05/17 11:14:57;;;;;;;10.48;3.35;;;;;;;24.17;41.18;99803.56;7685188;32;36177;-75
2022/05/17 11:19:31;;;;;;;6.37;3.90;;;;;;;24.47;40.61;99791.88;7684950;32;37212;-76
2022/05/17 11:23:55;;;;;;;9.35;4.03;;;;;;;24.41;41.25;99796.94;7684960;32;38967;-76
2022/05/17 11:28:25;;;;;;;9.30;4.47;;;;;;;24.61;40.84;99788.59;7684832;32;40911;-76
2022/05/17 11:33:02;;;;;;;6.68;3.35;;;;;;;24.31;41.56;99783.56;7684633;32;37880;-76
2022/05/17 11:37:33;;;;;;;8.40;3.90;;;;;;;24.48;41.57;99783.16;7673393;32;37224;-76
2022/05/17 11:41:50;;;;;;;5.28;3.55;;;;;;;24.32;42.00;99774.84;7664226;32;40068;-75
2022/05/17 11:46:26;;;;;;;7.22;3.67;;;;;;;24.20;41.24;99780.56;7658162;32;40137;-75
2022/05/17 11:50:57;;;;;;;7.37;4.20;;;;;;;24.04;42.64;99780.59;7660040;32;37986;-76
2022/05/17 11:55:18;;;;;;;16.60;4.68;;;;;;;23.86;42.43;99785.75;7684757;32;37414;-76
2022/05/17 11:59:38;;;;;;;10.73;5.07;;;;;;;23.55;45.75;99769.88;7682766;32;39091;-76
2022/05/17 12:03:56;;;;;;;8.05;4.12;;;;;;;23.52;47.00;99770.59;7683338;32;39593;-76
2022/05/17 12:08:40;;;;;;;13.02;4.65;;;;;;;23.74;47.52;99772.72;7684075;32;37821;-80
2022/05/17 12:13:07;;;;;;;16.27;5.28;;;;;;;23.95;46.68;99771.63;7680472;32;37164;-80
2022/05/17 12:17:34;;;;;;;8.45;4.35;;;;;;;24.15;45.90;99764.13;7673181;32;39294;-80
2022/05/17 12:22:00;;;;;;;9.00;5.03;;;;;;;24.31;44.27;99761.28;7683759;32;40107;-81
2022/05/17 12:26:36;;;;;;;9.13;4.45;;;;;;;23.54;45.09;99757.94;7681976;32;38024;-81
2022/05/17 12:30:54;;;;;;;7.70;4.57;;;;;;;23.81;45.13;99761.78;7682675;32;36782;-78
2022/05/17 12:35:10;;;;;;;7.80;4.95;;;;;;;23.65;46.46;99752.62;7683377;32;38990;-78
2022/05/17 12:44:06;;;;;;;6.75;4.32;;;;;;;23.72;47.20;99752.00;7683323;32;38670;-77
2022/05/17 12:48:25;;;;;;;11.40;4.53;;;;;;;23.56;47.10;99750.03;7683357;32;38273;-79
2022/05/17 12:52:41;;;;;;;8.18;4.55;;;;;;;23.64;47.49;99751.00;7683337;32;40543;-78
2022/05/17 12:56:58;;;;;;;12.60;4.43;;;;;;;23.65;46.94;99749.06;7682983;32;39873;-79
2022/05/17 13:01:21;;;;;;;12.43;4.87;;;;;;;23.60;46.85;99748.13;7683132;32;38829;-77
2022/05/17 13:05:43;;;;;;;8.95;4.65;;;;;;;23.60;47.33;99750.13;7682566;32;37231;-79
2022/05/17 13:10:09;;;;;;;14.65;4.55;;;;;;;23.40;47.08;99747.28;7683277;32;40126;-78
2022/05/17 13:14:34;;;;;;;11.65;4.72;;;;;;;23.19;47.14;99741.97;7681491;32;40942;-77
2022/05/17 13:18:51;;;;;;;7.97;4.70;;;;;;;23.33;47.73;99737.94;7682545;32;37950;-78
2022/05/17 13:23:08;;;;;;;7.57;4.70;;;;;;;23.74;47.28;99738.53;7682658;32;37315;-77
2022/05/17 13:27:43;;;;;;;9.95;5.10;;;;;;;23.71;48.27;99726.13;7680856;32;39181;-78
2022/05/17 13:32:21;;;;;;;11.55;5.05;;;;;;;23.27;48.95;99725.44;7681651;32;40794;-77
2022/05/17 13:36:40;;;;;;;5.62;4.12;;;;;;;22.98;48.55;99733.03;7680851;32;38569;-78
2022/05/17 13:40:58;;;;;;;8.23;4.78;;;;;;;22.90;49.57;99728.47;7686129;32;37616;-79
2022/05/17 13:45:34;;;;;;;10.35;5.03;;;;;;;22.88;49.13;99710.16;7684363;32;39776;-78
2022/05/17 13:49:51;;;;;;;12.45;4.78;;;;;;;23.07;48.65;99703.13;7685765;32;40518;-79
2022/05/17 13:54:21;;;;;;;10.35;5.12;;;;;;;23.32;49.40;99705.72;7659331;32;37268;-79
2022/05/17 13:58:38;;;;;;;9.13;5.55;;;;;;;23.16;49.76;99698.22;7659555;32;37924;-78
2022/05/17 14:02:58;;;;;;;9.55;5.28;;;;;;;23.24;49.50;99705.53;7659675;32;39811;-78
2022/05/17 14:07:39;;;;;;;7.82;4.57;;;;;;;23.14;49.61;99697.75;7660716;32;40623;-78
2022/05/17 14:11:58;;;;;;;7.85;5.00;;;;;;;23.70;48.61;99704.22;7658998;32;38618;-78
2022/05/17 14:16:19;;;;;;;8.52;5.50;;;;;;;23.86;47.12;99696.69;7659158;32;37640;-78
2022/05/17 14:20:36;;;;;;;9.80;4.32;;;;;;;24.12;47.23;99698.03;7657471;32;40199;-78
2022/05/17 14:24:53;;;;;;;14.45;4.07;;;;;;;23.74;46.31;99686.44;7659092;32;39752;-76
2022/05/17 14:29:09;;;;;;;8.18;4.03;;;;;;;23.78;46.55;99695.69;7658445;32;37961;-79
2022/05/17 14:33:26;;;;;;;9.93;4.78;;;;;;;23.79;46.25;99686.16;7659071;32;37794;-79
2022/05/17 14:37:42;;;;;;;8.38;4.90;;;;;;;23.88;46.85;99680.41;7658712;32;39375;-77
2022/05/17 14:41:59;;;;;;;9.18;5.40;;;;;;;23.35;48.10;99685.53;7658496;32;39692;-78
2022/05/17 14:46:17;;;;;;;6.97;4.53;;;;;;;23.34;47.57;99681.16;7658492;32;38693;-78
2022/05/17 14:50:33;;;;;;;7.78;4.50;;;;;;;23.76;47.44;99674.94;7656487;32;37397;-78
2022/05/17 14:54:50;;;;;;;11.12;5.22;;;;;;;24.22;47.33;99679.94;7658714;32;40137;-78
2022/05/17 14:59:08;;;;;;;8.40;4.70;;;;;;;24.02;47.25;99676.31;7658183;32;40214;-77
2022/05/17 15:03:30;;;;;;;8.75;5.40;;;;;;;23.80;48.74;99673.87;7658514;32;38004;-78
2022/05/17 15:07:50;;;;;;;12.25;5.30;;;;;;;23.82;47.76;99667.97;7657523;32;36813;-78
2022/05/17 15:12:06;;;;;;;10.30;5.75;;;;;;;23.65;48.89;99671.13;7657289;32;39444;-78
2022/05/17 15:16:22;;;;;;;10.20;5.00;;;;;;;23.61;50.21;99679.38;7651392;32;39722;-78
2022/05/17 15:20:40;;;;;;;9.32;5.40;;;;;;;23.81;50.75;99683.03;7656669;32;38684;-78
2022/05/17 15:24:56;;;;;;;21.10;5.45;;;;;;;23.84;50.70;99668.41;7658406;32;37253;-78
2022/05/17 15:29:13;;;;;;;12.52;5.60;;;;;;;23.86;49.70;99668.84;7658258;32;40105;-79
2022/05/17 15:33:30;;;;;;;15.70;5.40;;;;;;;23.78;48.78;99661.47;7657777;32;39975;-80
2022/05/17 15:37:46;;;;;;;7.78;4.70;;;;;;;23.74;49.84;99655.03;7667790;32;37701;-79
2022/05/17 15:42:03;;;;;;;8.85;4.72;;;;;;;23.67;49.23;99652.91;7670597;32;36692;-79
2022/05/17 15:46:21;;;;;;;8.00;4.40;;;;;;;23.07;50.61;99655.88;7669891;32;39384;-79
2022/05/17 15:55:15;;;;;;;16.42;5.12;;;;;;;23.44;50.80;99655.56;7669312;32;38866;-79
2022/05/17 15:59:31;;;;;;;13.30;5.20;;;;;;;23.53;50.31;99667.28;7674706;32;37026;-78
2022/05/17 16:04:54;;;;;;;10.80;5.10;;;;;;;23.23;49.99;99670.56;7673010;32;39258;-78
2022/05/17 16:08:33;;;;;;;14.57;5.60;;;;;;;23.01;50.78;99662.84;7656991;32;40621;-78
2022/05/17 16:12:49;;;;;;;10.90;5.40;;;;;;;22.75;51.43;99666.13;7655939;32;37506;-79
2022/05/17 16:17:05;;;;;;;11.15;4.97;;;;;;;22.39;52.46;99682.66;7650590;32;38135;-79
2022/05/17 16:21:23;;;;;;;9.25;5.47;;;;;;;22.78;52.12;99677.31;7657769;32;40750;-78
2022/05/17 16:25:46;;;;;;;9.60;5.20;;;;;;;22.32;53.29;99671.34;7655948;32;40014;-79
2022/05/17 16:30:04;;;;;;;11.57;5.85;;;;;;;22.36;54.25;99661.12;7656563;32;37979;-80
2022/05/17 16:34:26;;;;;;;11.00;5.75;;;;;;;22.49;53.66;99659.91;7666768;32;37946;-78
2022/05/17 16:38:43;;;;;;;12.45;6.72;;;;;;;22.68;53.55;99644.53;7682909;32;39256;-79
2022/05/17 16:43:00;;;;;;;14.93;6.57;;;;;;;22.53;54.29;99650.87;7683152;32;40006;-80
2022/05/17 16:47:17;;;;;;;13.30;7.00;;;;;;;22.58;54.60;99656.19;7683159;32;38105;-80
2022/05/17 16:51:34;;;;;;;12.05;6.93;;;;;;;22.38;55.61;99661.59;7683631;32;37974;-78
2022/05/17 16:55:50;;;;;;;14.82;8.05;;;;;;;22.34;56.08;99662.66;7682819;32;40182;-78
2022/05/17 17:00:07;;;;;;;10.52;6.90;;;;;;;22.10;57.45;99648.47;7683532;32;40258;-79
2022/05/17 17:04:24;;;;;;;10.40;7.28;;;;;;;22.32;57.31;99654.69;7681361;32;38744;-79
2022/05/17 17:08:40;;;;;;;11.27;7.57;;;;;;;22.24;57.06;99659.19;7683321;32;37861;-78
2022/05/17 17:12:56;;;;;;;13.02;6.97;;;;;;;21.97;57.38;99662.75;7684828;32;39808;-79
2022/05/17 17:17:14;;;;;;;16.40;8.05;;;;;;;21.97;57.09;99660.78;7666227;32;40530;-79
2022/05/17 17:21:31;;;;;;;11.15;7.47;;;;;;;21.96;56.74;99666.72;7660142;32;37666;-79
2022/05/17 17:25:47;;;;;;;10.93;6.37;;;;;;;21.73;57.64;99668.03;7659369;32;37847;-78
2022/05/17 17:30:05;;;;;;;12.10;7.03;;;;;;;21.76;57.66;99667.31;7658811;32;39291;-79
2022/05/17 17:38:56;;;;;;;10.15;6.70;;;;;;;21.83;57.68;99682.56;7659526;32;37606;-79
2022/05/17 17:43:14;;;;;;;10.65;7.22;;;;;;;21.49;58.78;99681.91;7659818;32;37054;-79
2022/05/17 17:47:30;;;;;;;12.85;7.30;;;;;;;21.57;58.28;99686.53;7658662;32;40475;-79
2022/05/17 17:51:46;;;;;;;15.07;7.18;;;;;;;21.55;58.56;99691.62;7659485;32;40796;-80
2022/05/17 17:56:02;;;;;;;11.65;6.25;;;;;;;21.70;58.38;99706.75;7659751;32;37800;-77
2022/05/17 18:00:19;;;;;;;12.45;5.37;;;;;;;21.74;58.28;99719.56;7658533;32;37665;-76
2022/05/17 18:04:35;;;;;;;7.68;3.08;;;;;;;21.54;57.58;99737.16;7659587;32;40096;-76
2022/05/17 18:08:51;;;;;;;5.50;3.15;;;;;;;21.07;55.24;99735.59;7659593;32;39910;-78
2022/05/17 18:13:09;;;;;;;6.03;3.10;;;;;;;20.76;54.23;99741.63;7658464;32;37859;-79
2022/05/17 18:17:35;;;;;;;4.75;3.10;;;;;;;20.56;55.16;99757.94;7659563;32;37101;-79
2022/05/17 18:21:51;;;;;;;6.43;3.22;;;;;;;20.57;53.93;99744.88;7653367;32;39255;-79
2022/05/17 18:26:09;;;;;;;3.87;2.72;;;;;;;20.58;53.50;99744.53;7644022;32;40052;-80
2022/05/17 18:30:28;;;;;;;5.53;3.15;;;;;;;20.03;54.62;99751.19;7645600;32;38748;-80
2022/05/17 18:34:54;;;;;;;4.07;2.90;;;;;;;19.31;56.27;99748.28;7644813;32;37211;-80
2022/05/17 18:39:13;;;;;;;5.80;3.00;;;;;;;19.49;55.64;99766.44;7644567;32;39405;-80
2022/05/17 18:43:30;;;;;;;6.30;3.55;;;;;;;19.34;56.48;99791.84;7644485;32;40871;-80
2022/05/17 18:47:50;;;;;;;6.68;3.15;;;;;;;19.34;56.03;99808.44;7645161;32;38012;-79
2022/05/17 18:52:27;;;;;;;5.00;2.90;;;;;;;19.26;55.92;99810.06;7644544;32;37164;-79
2022/05/17 18:56:43;;;;;;;6.40;3.10;;;;;;;19.30;55.52;99811.06;7644981;32;39265;-79
2022/05/17 19:01:00;;;;;;;7.32;3.15;;;;;;;18.98;56.55;99820.72;7644976;32;40802;-79
2022/05/17 19:05:26;;;;;;;9.18;3.10;;;;;;;19.27;55.79;99835.78;7644223;32;37208;-79
2022/05/17 19:14:18;;;;;;;5.97;2.92;;;;;;;18.91;56.49;99850.78;7644217;32;39378;-80
2022/05/17 19:18:39;;;;;;;6.93;2.90;;;;;;;18.89;56.10;99864.91;7632944;32;40823;-80
2022/05/17 19:22:58;;;;;;;9.10;2.92;;;;;;;19.19;54.82;99854.00;7629753;32;39532;-78
2022/05/17 19:27:14;;;;;;;6.05;2.83;;;;;;;19.20;54.55;99868.62;7657660;32;36759;-78
2022/05/17 19:31:34;;;;;;;5.30;3.22;;;;;;;19.12;54.81;99879.34;7637750;32;39090;-78
2022/05/17 19:35:54;;;;;;;6.45;3.00;;;;;;;18.90;55.55;99869.31;7645517;32;39901;-79
2022/05/17 19:40:17;;;;;;;9.02;3.58;;;;;;;18.86;55.92;99879.37;7643849;32;38786;-78
2022/05/17 19:44:38;;;;;;;5.40;2.70;;;;;;;19.04;55.18;99890.41;7644889;32;36105;-78
2022/05/17 19:49:00;;;;;;;6.78;3.00;;;;;;;19.03;55.53;99906.19;7642256;32;40060;-79
2022/05/17 19:53:19;;;;;;;5.03;2.95;;;;;;;19.07;55.39;99909.91;7642644;32;41198;-79
2022/05/17 19:57:35;;;;;;;4.40;2.70;;;;;;;19.02;55.60;99907.31;7644489;32;38585;-79
2022/05/17 20:01:51;;;;;;;6.85;2.87;;;;;;;19.17;55.02;99916.25;7643482;32;37882;-79
2022/05/17 20:06:08;;;;;;;7.65;2.60;;;;;;;19.20;54.65;99926.66;7643491;32;39062;-80
2022/05/17 20:10:25;;;;;;;4.68;2.90;;;;;;;19.17;54.90;99928.12;7635413;32;40530;-80
2022/05/17 20:14:41;;;;;;;6.43;3.17;;;;;;;19.25;54.83;99929.28;7631815;32;38732;-79
2022/05/17 20:18:58;;;;;;;4.03;2.60;;;;;;;19.23;55.52;99928.75;7640909;32;37862;-78
2022/05/17 20:23:15;;;;;;;5.43;2.70;;;;;;;19.16;55.51;99933.97;7639523;32;40915;-78
2022/05/17 20:27:31;;;;;;;4.85;2.62;;;;;;;19.28;55.17;99939.66;7655611;32;39941;-78
2022/05/17 20:31:48;;;;;;;4.72;2.90;;;;;;;18.84;56.09;99947.94;7631386;32;37962;-79
2022/05/17 20:36:05;;;;;;;6.30;2.80;;;;;;;19.07;55.83;99945.84;7638431;32;36952;-79
2022/05/17 20:40:21;;;;;;;4.32;2.85;;;;;;;18.85;56.91;99960.63;7631690;32;39419;-79
2022/05/17 20:44:39;;;;;;;7.18;2.83;;;;;;;19.07;55.88;99958.84;7641758;32;40845;-79
2022/05/17 20:48:55;;;;;;;6.12;2.85;;;;;;;19.23;55.89;99970.22;7641737;32;38694;-79